Time;durP1;ratioP1;P1;durP2;ratioP2;P2;SDS_P1;SDS_P2;PMS_P1;PMS_P2;Temp;Humidity;BMP_temperature;BMP_pressure;BME280_temperature;BME280_humidity;BME280_pressure;Samples;Min_cycle;Max_cycle;Signal;HPM_P1;HPM_P2
2021/12/24 00:01:52;;;;;;;27.40;12.10;;;;;;;;;;4999272;28;20205;-83
2021/12/24 00:04:21;;;;;;;24.47;11.77;;;;;;;;;;4998142;28;20299;-83
2021/12/24 00:06:49;;;;;;;26.00;12.00;;;;;;;;;;4991744;28;20684;-81
2021/12/24 00:09:21;;;;;;;24.93;12.87;;;;;;;;;;4992981;28;20221;-81
2021/12/24 00:11:49;;;;;;;24.27;11.93;;;;;;;;;;4990686;28;20296;-83
2021/12/24 00:14:16;;;;;;;19.20;8.37;;;;;;;;;;4994596;28;20316;-83
2021/12/24 00:16:48;;;;;;;25.97;11.23;;;;;;;;;;4999241;28;20280;-82
2021/12/24 00:19:21;;;;;;;23.57;11.27;;;;;;;;;;4988457;28;20202;-82
2021/12/24 00:35:35;;;;;;;22.57;10.03;;;;;;;;;;4989400;28;20343;-81
2021/12/24 00:38:06;;;;;;;20.93;9.53;;;;;;;;;;4989364;28;20747;-83
2021/12/24 00:40:34;;;;;;;23.17;10.10;;;;;;;;;;4985101;28;20197;-82
2021/12/24 00:43:02;;;;;;;20.70;9.60;;;;;;;;;;4986377;28;20256;-82
2021/12/24 00:45:30;;;;;;;21.73;10.13;;;;;;;;;;4988150;28;20248;-82
2021/12/24 00:47:58;;;;;;;18.90;9.80;;;;;;;;;;4988945;28;20259;-82
2021/12/24 00:50:27;;;;;;;18.13;9.50;;;;;;;;;;4994478;28;20296;-83
2021/12/24 00:53:01;;;;;;;20.20;9.70;;;;;;;;;;4996630;28;20309;-82
2021/12/24 00:55:30;;;;;;;20.03;9.30;;;;;;;;;;4995013;28;20233;-82
2021/12/24 00:57:59;;;;;;;20.33;10.03;;;;;;;;;;4989820;28;20562;-82
2021/12/24 01:00:28;;;;;;;20.93;9.47;;;;;;;;;;4987531;28;20213;-82
2021/12/24 01:02:56;;;;;;;19.53;10.33;;;;;;;;;;4986976;28;20224;-81
2021/12/24 01:05:24;;;;;;;21.27;9.90;;;;;;;;;;4986519;28;20236;-82
2021/12/24 01:07:52;;;;;;;19.73;9.97;;;;;;;;;;4990605;28;20193;-83
2021/12/24 01:10:21;;;;;;;19.53;9.77;;;;;;;;;;4986620;28;20712;-82
2021/12/24 01:12:50;;;;;;;17.67;8.37;;;;;;;;;;4986601;28;20220;-82
2021/12/24 01:15:17;;;;;;;19.50;9.20;;;;;;;;;;4987822;28;20225;-82
2021/12/24 01:17:50;;;;;;;15.10;7.83;;;;;;;;;;4987466;28;20232;-83
2021/12/24 01:20:25;;;;;;;16.77;8.60;;;;;;;;;;4986417;28;20835;-80
2021/12/24 01:25:41;;;;;;;16.33;8.43;;;;;;;;;;4987950;28;20271;-82
2021/12/24 01:28:36;;;;;;;18.13;8.70;;;;;;;;;;4986778;28;20220;-82
2021/12/24 01:39:23;;;;;;;19.17;8.63;;;;;;;;;;4990033;28;20203;-83
2021/12/24 01:44:38;;;;;;;17.20;8.60;;;;;;;;;;4988379;28;20263;-83
2021/12/24 01:47:06;;;;;;;16.33;8.50;;;;;;;;;;4984934;28;20300;-83
2021/12/24 01:49:34;;;;;;;16.53;7.63;;;;;;;;;;4986747;28;20292;-82
2021/12/24 01:52:02;;;;;;;18.03;8.10;;;;;;;;;;4992457;28;22078;-83
2021/12/24 01:54:30;;;;;;;19.00;8.23;;;;;;;;;;4989570;28;20311;-82
2021/12/24 01:56:57;;;;;;;14.73;7.60;;;;;;;;;;4991106;28;20300;-82
2021/12/24 01:59:24;;;;;;;15.97;7.10;;;;;;;;;;4989544;28;20707;-82
2021/12/24 02:01:53;;;;;;;15.57;8.00;;;;;;;;;;4987632;28;20645;-80
2021/12/24 02:04:21;;;;;;;17.67;9.30;;;;;;;;;;4992188;28;20760;-82
2021/12/24 02:06:49;;;;;;;15.87;8.20;;;;;;;;;;4987155;28;20231;-81
2021/12/24 02:09:16;;;;;;;17.07;8.10;;;;;;;;;;4984883;28;20691;-81
2021/12/24 02:11:44;;;;;;;13.60;7.53;;;;;;;;;;4985592;28;20206;-80
2021/12/24 02:14:13;;;;;;;14.57;7.37;;;;;;;;;;4989222;28;20243;-81
2021/12/24 02:16:53;;;;;;;16.27;7.30;;;;;;;;;;5005618;28;20201;-82
2021/12/24 02:30:39;;;;;;;12.57;6.07;;;;;;;;;;4983545;28;20236;-83
2021/12/24 02:33:07;;;;;;;14.10;6.60;;;;;;;;;;4988768;28;20209;-82
2021/12/24 02:35:35;;;;;;;14.90;6.30;;;;;;;;;;4989518;28;20260;-84
2021/12/24 02:38:04;;;;;;;13.37;5.90;;;;;;;;;;4992455;28;20245;-83
2021/12/24 02:40:32;;;;;;;12.67;6.77;;;;;;;;;;4992451;28;20201;-82
2021/12/24 02:43:00;;;;;;;13.00;6.90;;;;;;;;;;4990601;28;20708;-82
2021/12/24 02:45:28;;;;;;;10.77;5.50;;;;;;;;;;4989905;28;20450;-82
2021/12/24 02:48:24;;;;;;;10.33;5.60;;;;;;;;;;4990295;28;20259;-82
2021/12/24 02:53:58;;;;;;;11.57;5.90;;;;;;;;;;4989311;28;20245;-82
2021/12/24 02:56:30;;;;;;;9.97;5.43;;;;;;;;;;5031348;23;20231;-87
2021/12/24 02:58:59;;;;;;;10.73;5.70;;;;;;;;;;5011311;28;20227;-86
2021/12/24 03:01:33;;;;;;;9.57;5.40;;;;;;;;;;5011579;28;20200;-86
2021/12/24 03:04:00;;;;;;;9.43;5.17;;;;;;;;;;5011908;28;20212;-86
2021/12/24 03:06:30;;;;;;;9.37;4.60;;;;;;;;;;5010427;28;20224;-86
2021/12/24 03:08:59;;;;;;;8.90;4.60;;;;;;;;;;5013388;28;20213;-86
2021/12/24 03:11:26;;;;;;;10.73;4.87;;;;;;;;;;5008410;28;20654;-86
2021/12/24 03:13:54;;;;;;;10.03;4.90;;;;;;;;;;5012614;28;20208;-86
2021/12/24 03:16:22;;;;;;;8.20;4.60;;;;;;;;;;5009694;28;20730;-86
2021/12/24 03:18:50;;;;;;;7.93;4.80;;;;;;;;;;5009597;28;20205;-86
2021/12/24 03:21:21;;;;;;;9.90;4.87;;;;;;;;;;5009805;28;20243;-86
2021/12/24 03:26:39;;;;;;;7.07;3.93;;;;;;;;;;5008357;28;20226;-86
2021/12/24 03:29:07;;;;;;;5.00;3.20;;;;;;;;;;5009704;28;20234;-86
2021/12/24 03:31:34;;;;;;;8.17;3.80;;;;;;;;;;5020030;28;20249;-87
2021/12/24 03:34:01;;;;;;;5.10;2.50;;;;;;;;;;5008303;28;20205;-87
2021/12/24 03:36:29;;;;;;;8.17;3.80;;;;;;;;;;5009896;28;20658;-86
2021/12/24 03:38:56;;;;;;;5.33;3.13;;;;;;;;;;5007857;28;20204;-86
2021/12/24 03:41:24;;;;;;;5.53;3.27;;;;;;;;;;5010264;28;21012;-87
2021/12/24 03:43:53;;;;;;;5.47;3.20;;;;;;;;;;5009727;28;20227;-87
2021/12/24 03:46:29;;;;;;;5.90;3.40;;;;;;;;;;5011709;28;20645;-87
2021/12/24 03:49:00;;;;;;;6.87;3.10;;;;;;;;;;5006955;28;20581;-87
2021/12/24 03:51:38;;;;;;;7.10;3.30;;;;;;;;;;5009655;28;20236;-86
2021/12/24 03:56:50;;;;;;;4.40;2.63;;;;;;;;;;5007165;28;20211;-87
2021/12/24 03:59:19;;;;;;;5.13;2.73;;;;;;;;;;5008661;28;20623;-87
2021/12/24 04:01:46;;;;;;;5.13;2.60;;;;;;;;;;5010901;28;20691;-86
2021/12/24 04:04:14;;;;;;;5.03;2.70;;;;;;;;;;5007980;28;20244;-86
2021/12/24 04:06:42;;;;;;;5.00;2.60;;;;;;;;;;5009087;28;20224;-86
2021/12/24 04:09:10;;;;;;;6.67;2.80;;;;;;;;;;5010821;28;20208;-86
2021/12/24 04:11:39;;;;;;;4.53;2.43;;;;;;;;;;5012926;28;20529;-86
2021/12/24 04:14:06;;;;;;;4.73;2.53;;;;;;;;;;5008207;28;20204;-86
2021/12/24 04:16:38;;;;;;;5.10;2.40;;;;;;;;;;5010805;28;20236;-86
2021/12/24 04:19:23;;;;;;;4.27;2.50;;;;;;;;;;5008889;28;20212;-86
2021/12/24 04:27:20;;;;;;;4.30;2.10;;;;;;;;;;5004618;28;20725;-86
2021/12/24 04:29:47;;;;;;;4.80;2.30;;;;;;;;;;5007894;28;20216;-86
2021/12/24 04:32:19;;;;;;;4.83;2.23;;;;;;;;;;5005676;28;20585;-86
2021/12/24 04:34:52;;;;;;;4.70;2.23;;;;;;;;;;5009725;28;20224;-86
2021/12/24 04:51:19;;;;;;;6.30;2.07;;;;;;;;;;5026520;28;20235;-86
2021/12/24 05:02:21;;;;;;;5.53;2.33;;;;;;;;;;4950193;28;20202;-86
2021/12/24 05:05:00;;;;;;;6.23;2.30;;;;;;;;;;5006760;28;20237;-86
2021/12/24 05:07:55;;;;;;;6.37;2.10;;;;;;;;;;5009692;28;20215;-86
2021/12/24 05:10:24;;;;;;;2.57;1.63;;;;;;;;;;5009198;28;20550;-86
2021/12/24 05:12:52;;;;;;;4.67;2.00;;;;;;;;;;5003293;28;20268;-86
2021/12/24 05:15:19;;;;;;;7.63;1.90;;;;;;;;;;5006058;28;20231;-85
2021/12/24 05:18:03;;;;;;;3.00;1.90;;;;;;;;;;5003992;28;20683;-86
2021/12/24 05:23:17;;;;;;;13.53;2.70;;;;;;;;;;5005942;28;20285;-86
2021/12/24 05:25:45;;;;;;;5.60;2.40;;;;;;;;;;5005126;28;20232;-86
2021/12/24 05:28:13;;;;;;;3.13;2.00;;;;;;;;;;5007480;28;20286;-86
2021/12/24 05:30:40;;;;;;;6.73;2.50;;;;;;;;;;5007997;28;20231;-85
2021/12/24 05:33:12;;;;;;;7.57;2.70;;;;;;;;;;5005806;28;20212;-86
2021/12/24 05:35:40;;;;;;;5.53;2.90;;;;;;;;;;5006672;28;20351;-86
2021/12/24 05:38:07;;;;;;;7.17;2.80;;;;;;;;;;5008399;28;20212;-86
2021/12/24 05:40:35;;;;;;;5.47;1.90;;;;;;;;;;5008571;28;20839;-86
2021/12/24 05:43:02;;;;;;;6.03;2.80;;;;;;;;;;5009880;28;20201;-86
2021/12/24 05:45:29;;;;;;;10.13;2.97;;;;;;;;;;5010101;28;20224;-86
2021/12/24 05:47:57;;;;;;;7.23;2.50;;;;;;;;;;5005736;28;20234;-86
2021/12/24 05:50:24;;;;;;;7.67;2.70;;;;;;;;;;5006187;28;20220;-86
2021/12/24 05:52:52;;;;;;;7.40;2.93;;;;;;;;;;5006397;28;20208;-85
2021/12/24 05:55:20;;;;;;;8.73;3.40;;;;;;;;;;5005566;28;20267;-86
2021/12/24 05:57:48;;;;;;;8.73;3.80;;;;;;;;;;5005680;28;20208;-86
2021/12/24 06:00:15;;;;;;;10.70;2.77;;;;;;;;;;5008138;28;20215;-86
2021/12/24 06:02:43;;;;;;;9.23;2.90;;;;;;;;;;5003779;28;20554;-86
2021/12/24 06:05:10;;;;;;;7.87;3.67;;;;;;;;;;5008283;28;20231;-86
2021/12/24 06:07:38;;;;;;;10.73;3.03;;;;;;;;;;5005785;28;20210;-85
2021/12/24 06:10:07;;;;;;;10.63;3.40;;;;;;;;;;5004738;28;20248;-85
2021/12/24 06:12:35;;;;;;;7.43;3.60;;;;;;;;;;5003315;28;20301;-85
2021/12/24 06:15:05;;;;;;;7.50;3.13;;;;;;;;;;5020022;28;20209;-86
2021/12/24 06:17:36;;;;;;;7.50;3.10;;;;;;;;;;5028277;28;20197;-86
2021/12/24 06:20:03;;;;;;;12.10;5.67;;;;;;;;;;5025785;28;20212;-85
2021/12/24 06:22:31;;;;;;;9.00;3.57;;;;;;;;;;5018370;28;20738;-85
2021/12/24 06:24:59;;;;;;;6.97;3.80;;;;;;;;;;5010328;28;20228;-85
2021/12/24 06:27:27;;;;;;;9.30;3.50;;;;;;;;;;5008700;28;20239;-85
2021/12/24 06:29:55;;;;;;;7.97;3.60;;;;;;;;;;5007057;28;20216;-86
2021/12/24 06:32:22;;;;;;;7.57;3.37;;;;;;;;;;5006003;28;20647;-85
2021/12/24 06:34:50;;;;;;;8.37;2.93;;;;;;;;;;5004959;28;20592;-86
2021/12/24 06:37:17;;;;;;;5.10;3.00;;;;;;;;;;5011401;28;20284;-85
2021/12/24 06:39:44;;;;;;;12.97;4.00;;;;;;;;;;5010777;28;20204;-85
2021/12/24 06:42:12;;;;;;;14.80;4.13;;;;;;;;;;5008608;28;20511;-86
2021/12/24 06:44:41;;;;;;;7.50;3.10;;;;;;;;;;5012647;28;20308;-86
2021/12/24 06:47:08;;;;;;;6.57;3.07;;;;;;;;;;5010628;28;20207;-85
2021/12/24 06:49:36;;;;;;;7.73;3.30;;;;;;;;;;5009668;28;20231;-86
2021/12/24 06:52:06;;;;;;;6.57;3.40;;;;;;;;;;5011051;28;20274;-86
2021/12/24 06:54:33;;;;;;;12.17;3.47;;;;;;;;;;5007051;28;20629;-86
2021/12/24 06:57:01;;;;;;;4.57;2.37;;;;;;;;;;5011940;28;20200;-87
2021/12/24 06:59:28;;;;;;;7.03;3.23;;;;;;;;;;5012328;28;20251;-86
2021/12/24 07:01:59;;;;;;;10.60;3.57;;;;;;;;;;5020575;28;20256;-87
2021/12/24 07:04:26;;;;;;;9.87;3.67;;;;;;;;;;5018385;28;20631;-87
2021/12/24 07:06:54;;;;;;;11.63;3.60;;;;;;;;;;5017501;28;20235;-85
2021/12/24 07:09:22;;;;;;;12.83;4.00;;;;;;;;;;5018032;28;20209;-85
2021/12/24 07:11:50;;;;;;;8.60;3.60;;;;;;;;;;5007266;28;20550;-86
2021/12/24 07:14:41;;;;;;;12.70;3.40;;;;;;;;;;5012579;28;20224;-86
2021/12/24 07:17:29;;;;;;;9.93;3.57;;;;;;;;;;5016044;28;20323;-87
2021/12/24 07:20:00;;;;;;;9.03;3.60;;;;;;;;;;5007861;28;20235;-87
2021/12/24 07:22:27;;;;;;;11.30;3.70;;;;;;;;;;5013323;28;20228;-86
2021/12/24 07:24:55;;;;;;;8.17;3.63;;;;;;;;;;5017150;28;20224;-87
2021/12/24 07:27:22;;;;;;;9.50;3.80;;;;;;;;;;5015037;28;20208;-86
2021/12/24 07:29:49;;;;;;;10.37;3.43;;;;;;;;;;5014208;28;20585;-88
2021/12/24 07:32:17;;;;;;;9.90;3.50;;;;;;;;;;5010128;28;20228;-86
2021/12/24 07:34:44;;;;;;;8.40;3.90;;;;;;;;;;5019337;28;20239;-86
2021/12/24 07:37:13;;;;;;;8.03;3.20;;;;;;;;;;5019893;28;20204;-87
2021/12/24 07:39:40;;;;;;;7.30;3.03;;;;;;;;;;5011805;28;20220;-87
2021/12/24 07:42:08;;;;;;;8.33;3.77;;;;;;;;;;5016599;28;20197;-87
2021/12/24 07:44:35;;;;;;;8.77;3.57;;;;;;;;;;5021392;28;20208;-87
2021/12/24 07:47:04;;;;;;;7.13;3.87;;;;;;;;;;5017846;28;20224;-87
2021/12/24 07:49:38;;;;;;;9.37;3.90;;;;;;;;;;5023286;28;20224;-85
2021/12/24 07:52:09;;;;;;;10.80;4.03;;;;;;;;;;5024942;28;20212;-85
2021/12/24 07:54:39;;;;;;;8.43;3.70;;;;;;;;;;5018311;28;20624;-86
2021/12/24 07:57:07;;;;;;;9.80;3.87;;;;;;;;;;5017664;28;20223;-86
2021/12/24 07:59:37;;;;;;;8.20;4.13;;;;;;;;;;5021272;28;20886;-87
2021/12/24 08:02:05;;;;;;;11.33;4.03;;;;;;;;;;5020869;28;20209;-86
2021/12/24 08:04:33;;;;;;;10.00;3.50;;;;;;;;;;5021540;28;20212;-86
2021/12/24 08:07:02;;;;;;;9.20;4.00;;;;;;;;;;5019651;28;20212;-86
2021/12/24 08:09:29;;;;;;;8.33;3.90;;;;;;;;;;5022490;28;20223;-86
2021/12/24 08:11:58;;;;;;;11.07;4.37;;;;;;;;;;5026972;28;20224;-86
2021/12/24 08:14:25;;;;;;;9.17;4.10;;;;;;;;;;5014663;28;20279;-85
2021/12/24 08:16:52;;;;;;;10.43;4.70;;;;;;;;;;5013480;28;20204;-87
2021/12/24 08:19:20;;;;;;;12.90;4.70;;;;;;;;;;5012236;28;20204;-86
2021/12/24 08:21:47;;;;;;;8.47;4.60;;;;;;;;;;5011790;28;20196;-87
2021/12/24 08:24:15;;;;;;;12.80;4.03;;;;;;;;;;5011493;28;20216;-85
2021/12/24 08:26:42;;;;;;;9.20;4.07;;;;;;;;;;5012623;28;20208;-86
2021/12/24 08:29:11;;;;;;;11.70;4.30;;;;;;;;;;5011361;28;20275;-88
2021/12/24 08:31:38;;;;;;;11.80;4.13;;;;;;;;;;5002037;28;20669;-85
2021/12/24 08:34:06;;;;;;;12.37;4.40;;;;;;;;;;5005668;28;20266;-86
2021/12/24 08:36:34;;;;;;;12.73;4.40;;;;;;;;;;5008992;28;20227;-86
2021/12/24 08:39:04;;;;;;;13.87;4.57;;;;;;;;;;5008507;28;20205;-87
2021/12/24 08:41:32;;;;;;;16.20;4.60;;;;;;;;;;5010314;28;20688;-87
2021/12/24 08:44:00;;;;;;;11.90;4.83;;;;;;;;;;5013485;28;20211;-86
2021/12/24 08:46:28;;;;;;;12.87;4.20;;;;;;;;;;5007149;28;20297;-86
2021/12/24 08:48:55;;;;;;;16.50;5.20;;;;;;;;;;5009552;28;20624;-87
2021/12/24 08:51:23;;;;;;;8.17;3.87;;;;;;;;;;5013302;28;20278;-86
2021/12/24 08:53:50;;;;;;;12.30;6.10;;;;;;;;;;5011553;28;20682;-88
2021/12/24 08:56:17;;;;;;;10.47;4.23;;;;;;;;;;5026639;22;20227;-81
2021/12/24 08:58:44;;;;;;;10.63;3.83;;;;;;;;;;5020427;28;20237;-83
2021/12/24 09:01:12;;;;;;;13.03;4.33;;;;;;;;;;5025233;28;20214;-81
2021/12/24 09:03:40;;;;;;;13.63;4.13;;;;;;;;;;5023137;28;20200;-81
2021/12/24 09:06:08;;;;;;;10.83;3.67;;;;;;;;;;5018937;28;20300;-80
2021/12/24 09:08:35;;;;;;;10.67;4.07;;;;;;;;;;5024170;28;20697;-81
2021/12/24 09:11:02;;;;;;;11.07;3.80;;;;;;;;;;5027949;28;20727;-81
2021/12/24 09:13:30;;;;;;;9.30;3.20;;;;;;;;;;5021628;28;20315;-80
2021/12/24 09:15:58;;;;;;;15.07;3.87;;;;;;;;;;5024552;28;20581;-80
2021/12/24 09:18:25;;;;;;;8.60;3.63;;;;;;;;;;5016951;28;20270;-80
2021/12/24 09:20:59;;;;;;;9.80;4.03;;;;;;;;;;5017494;28;20277;-80
2021/12/24 09:23:26;;;;;;;12.80;4.73;;;;;;;;;;5017991;28;20208;-80
2021/12/24 09:25:53;;;;;;;8.43;3.70;;;;;;;;;;5019204;28;20212;-81
2021/12/24 09:28:21;;;;;;;7.80;3.17;;;;;;;;;;5013771;28;20248;-81
2021/12/24 09:30:48;;;;;;;24.60;8.47;;;;;;;;;;5020291;28;20716;-81
2021/12/24 09:33:15;;;;;;;19.27;8.07;;;;;;;;;;5016822;28;20247;-82
2021/12/24 09:35:43;;;;;;;10.83;3.60;;;;;;;;;;5018650;28;20227;-82
2021/12/24 09:38:11;;;;;;;8.07;3.27;;;;;;;;;;5017453;28;20243;-82
2021/12/24 09:40:38;;;;;;;13.03;3.20;;;;;;;;;;5019820;28;20307;-83
2021/12/24 09:43:06;;;;;;;14.93;3.27;;;;;;;;;;5022316;28;20210;-82
2021/12/24 09:45:33;;;;;;;10.83;2.90;;;;;;;;;;5021166;28;20247;-83
2021/12/24 09:48:00;;;;;;;10.33;2.97;;;;;;;;;;5018753;28;20220;-83
2021/12/24 09:50:29;;;;;;;8.00;3.27;;;;;;;;;;5024552;28;20259;-82
2021/12/24 09:52:56;;;;;;;5.13;2.47;;;;;;;;;;5019015;28;20302;-82
2021/12/24 09:55:26;;;;;;;11.80;3.20;;;;;;;;;;5023866;28;20239;-83
2021/12/24 09:57:54;;;;;;;9.23;2.93;;;;;;;;;;5025124;28;20224;-82
2021/12/24 10:00:22;;;;;;;10.23;3.20;;;;;;;;;;5022369;28;20223;-83
2021/12/24 10:02:52;;;;;;;10.37;3.37;;;;;;;;;;5019654;28;20287;-82
2021/12/24 10:05:40;;;;;;;10.30;3.77;;;;;;;;;;5025340;28;20715;-83
2021/12/24 10:08:11;;;;;;;12.13;3.07;;;;;;;;;;5017860;28;20251;-83
2021/12/24 10:10:42;;;;;;;6.67;2.77;;;;;;;;;;5024461;28;20700;-82
2021/12/24 10:13:26;;;;;;;11.63;2.87;;;;;;;;;;5022010;28;20293;-83
2021/12/24 10:15:54;;;;;;;10.33;3.50;;;;;;;;;;5023182;28;20267;-82
2021/12/24 10:18:28;;;;;;;13.43;2.80;;;;;;;;;;5024572;28;20261;-83
2021/12/24 10:20:59;;;;;;;7.67;2.50;;;;;;;;;;5023383;28;20235;-83
2021/12/24 10:23:39;;;;;;;5.83;2.20;;;;;;;;;;5024120;28;20238;-82
2021/12/24 10:26:25;;;;;;;7.90;3.27;;;;;;;;;;5022201;28;20203;-80
2021/12/24 10:28:58;;;;;;;10.23;2.43;;;;;;;;;;5012155;28;20231;-80
2021/12/24 10:31:26;;;;;;;13.97;2.70;;;;;;;;;;5018511;28;20239;-79
2021/12/24 10:34:07;;;;;;;5.03;2.03;;;;;;;;;;5016339;28;20220;-80
2021/12/24 10:36:34;;;;;;;9.93;2.87;;;;;;;;;;5017552;28;20208;-79
2021/12/24 10:39:02;;;;;;;8.90;2.17;;;;;;;;;;5019455;28;20266;-80
2021/12/24 10:41:30;;;;;;;8.97;2.33;;;-4.00;99.90;;;;;;5017869;28;20678;-80
2021/12/24 10:44:16;;;;;;;10.93;2.37;;;9.20;99.90;;;;;;5022976;28;20286;-80
2021/12/24 10:46:58;;;;;;;8.07;2.10;;;9.10;99.90;;;;;;5018343;28;20208;-79
2021/12/24 10:49:37;;;;;;;10.17;3.30;;;9.10;99.90;;;;;;5016624;28;20222;-80
2021/12/24 10:52:14;;;;;;;6.93;2.10;;;9.10;99.90;;;;;;5017852;28;20235;-78
2021/12/24 10:54:54;;;;;;;10.47;2.87;;;9.10;99.90;;;;;;5022017;28;20200;-79
2021/12/24 10:57:23;;;;;;;7.20;2.37;;;9.00;99.90;;;;;;5019005;28;20240;-79
2021/12/24 10:59:53;;;;;;;7.10;2.60;;;9.10;99.90;;;;;;5013052;28;20701;-79
2021/12/24 11:02:23;;;;;;;6.53;2.30;;;9.00;99.90;;;;;;5011882;28;20202;-79
2021/12/24 11:04:53;;;;;;;9.60;2.13;;;9.00;99.90;;;;;;5010897;28;20489;-79
2021/12/24 11:07:34;;;;;;;7.87;2.30;;;9.00;99.90;;;;;;5009122;28;20254;-79
2021/12/24 11:10:13;;;;;;;8.80;3.33;;;9.00;99.90;;;;;;5004117;28;20338;-78
2021/12/24 11:12:42;;;;;;;10.17;2.80;;;8.90;99.90;;;;;;5003062;28;20227;-79
2021/12/24 11:15:22;;;;;;;10.70;2.10;;;8.90;99.90;;;;;;5018731;28;20323;-79
2021/12/24 11:17:51;;;;;;;11.50;2.93;;;8.90;99.90;;;;;;5022747;28;20222;-79
2021/12/24 11:20:18;;;;;;;8.73;3.00;;;8.90;99.90;;;;;;5017782;28;20290;-78
2021/12/24 11:22:54;;;;;;;9.27;2.40;;;9.00;99.90;;;;;;5021255;28;20255;-77
2021/12/24 11:25:22;;;;;;;10.33;2.70;;;8.90;99.90;;;;;;5022018;28;20594;-78
2021/12/24 11:27:49;;;;;;;11.87;3.13;;;8.90;99.90;;;;;;5021386;28;20224;-78
2021/12/24 11:30:17;;;;;;;9.40;2.90;;;9.00;99.90;;;;;;5017193;28;20584;-77
2021/12/24 11:32:46;;;;;;;10.17;2.40;;;9.00;99.90;;;;;;5012976;28;20219;-78
2021/12/24 11:35:14;;;;;;;6.90;2.70;;;9.10;99.90;;;;;;5015868;28;20207;-78
2021/12/24 11:37:44;;;;;;;6.80;1.83;;;9.10;99.90;;;;;;5019481;28;20721;-77
2021/12/24 11:40:12;;;;;;;8.90;2.00;;;9.10;99.90;;;;;;5016532;28;20208;-78
2021/12/24 11:42:40;;;;;;;10.07;2.30;;;9.20;99.90;;;;;;5013176;28;20200;-78
2021/12/24 11:45:08;;;;;;;8.47;2.40;;;9.20;99.90;;;;;;5015269;28;20326;-77
2021/12/24 11:47:35;;;;;;;7.80;2.50;;;9.30;99.90;;;;;;5019602;28;20224;-78
2021/12/24 11:50:04;;;;;;;9.73;1.87;;;9.30;99.90;;;;;;5015637;28;20214;-76
2021/12/24 11:52:32;;;;;;;12.07;2.70;;;9.30;99.90;;;;;;5022530;28;20228;-77
2021/12/24 11:54:59;;;;;;;5.67;1.87;;;9.30;99.90;;;;;;5017465;28;20215;-76
2021/12/24 11:57:27;;;;;;;11.40;2.63;;;9.30;99.90;;;;;;5010854;28;20315;-77
2021/12/24 11:59:54;;;;;;;6.73;2.13;;;;;;;;;;5014693;28;20226;-77
2021/12/24 12:02:36;;;;;;;8.10;2.40;;;9.20;99.90;;;;;;5015291;28;20219;-78
2021/12/24 12:05:22;;;;;;;7.87;2.73;;;9.10;99.90;;;;;;5016697;28;20744;-78
2021/12/24 12:07:51;;;;;;;8.37;2.73;;;9.10;99.90;;;;;;5018170;28;20235;-78
2021/12/24 12:10:49;;;;;;;6.87;3.00;;;9.10;99.90;;;;;;5018627;28;20536;-78
2021/12/24 12:13:42;;;;;;;10.53;2.63;;;9.00;99.90;;;;;;5015902;28;20221;-78
2021/12/24 12:16:10;;;;;;;8.33;2.83;;;9.00;99.90;;;;;;5019958;28;20207;-78
2021/12/24 12:18:46;;;;;;;7.07;2.60;;;9.00;99.90;;;;;;5023752;28;20256;-76
2021/12/24 12:21:19;;;;;;;17.13;2.80;;;9.00;99.90;;;;;;5022212;28;20219;-77
2021/12/24 12:26:49;;;;;;;13.27;3.20;;;8.90;99.90;;;;;;5025197;28;20192;-79
2021/12/24 12:29:44;;;;;;;7.33;2.70;;;9.10;99.90;;;;;;5021237;28;20264;-79
2021/12/24 12:32:38;;;;;;;14.50;4.10;;;9.10;99.90;;;;;;5006392;28;20238;-80
2021/12/24 12:35:06;;;;;;;9.77;2.40;;;9.10;99.90;;;;;;5026788;28;20212;-80
2021/12/24 12:37:45;;;;;;;12.47;2.70;;;9.10;99.90;;;;;;5018200;28;20270;-80
2021/12/24 12:40:32;;;;;;;10.10;2.67;;;;;;;;;;5021316;28;20207;-78
2021/12/24 12:43:11;;;;;;;13.10;3.20;;;9.10;99.90;;;;;;5022097;28;20203;-79
2021/12/24 12:46:04;;;;;;;16.00;4.30;;;9.10;99.90;;;;;;5021679;28;20256;-79
2021/12/24 12:48:50;;;;;;;10.87;3.20;;;9.20;99.90;;;;;;5018763;28;20237;-76
2021/12/24 12:51:19;;;;;;;15.67;2.83;;;9.10;99.90;;;;;;5022976;28;20200;-79
2021/12/24 12:53:50;;;;;;;8.33;2.30;;;9.20;99.90;;;;;;5023201;28;20228;-79
2021/12/24 12:56:20;;;;;;;12.40;2.30;;;9.30;99.90;;;;;;5028476;28;20227;-79
2021/12/24 12:58:49;;;;;;;13.03;2.93;;;9.30;99.90;;;;;;5019345;28;20307;-76
2021/12/24 13:01:19;;;;;;;11.63;2.67;;;9.40;99.90;;;;;;5014992;28;20610;-77
2021/12/24 13:04:15;;;;;;;13.30;3.30;;;9.40;99.90;;;;;;5022617;28;20192;-78
2021/12/24 13:06:58;;;;;;;11.47;2.63;;;9.50;99.90;;;;;;5017440;28;20629;-78
2021/12/24 13:09:32;;;;;;;12.43;3.13;;;9.60;99.90;;;;;;5014872;28;20250;-78
2021/12/24 13:12:02;;;;;;;15.90;3.80;;;9.60;99.90;;;;;;5015262;28;20211;-79
2021/12/24 13:14:32;;;;;;;10.37;3.17;;;9.60;99.90;;;;;;5020709;28;20216;-79
2021/12/24 13:17:21;;;;;;;50.30;16.87;;;9.50;99.90;;;;;;5022859;28;21362;-79
2021/12/24 13:20:13;;;;;;;17.50;5.10;;;9.50;99.90;;;;;;5019145;28;20740;-79
2021/12/24 13:22:39;;;;;;;10.53;3.00;;;;;;;;;;5024511;28;20211;-79
2021/12/24 13:25:14;;;;;;;17.83;7.30;;;9.30;99.90;;;;;;5019202;28;20667;-80
2021/12/24 13:27:44;;;;;;;24.70;12.57;;;9.30;99.90;;;;;;5020996;28;20231;-79
2021/12/24 13:30:15;;;;;;;11.27;3.37;;;9.30;99.90;;;;;;5017622;28;20224;-79
2021/12/24 13:32:45;;;;;;;22.97;4.23;;;9.30;99.90;;;;;;5006854;28;20208;-79
2021/12/24 13:35:14;;;;;;;18.57;4.30;;;;;;;;;;5010675;28;20314;-79
2021/12/24 13:37:45;;;;;;;17.43;3.97;;;9.10;99.90;;;;;;5004916;28;21867;-79
2021/12/24 13:40:16;;;;;;;9.73;3.07;;;9.00;99.90;;;;;;5014928;28;20211;-78
2021/12/24 13:42:46;;;;;;;10.47;2.90;;;9.10;99.90;;;;;;5008027;28;20204;-78
2021/12/24 13:45:13;;;;;;;9.93;2.37;;;9.10;99.90;;;;;;5014947;28;20306;-78
2021/12/24 13:47:59;;;;;;;13.20;3.50;;;9.20;99.90;;;;;;5019514;28;20254;-78
2021/12/24 13:56:04;;;;;;;14.97;3.73;;;9.20;99.90;;;;;;5012157;28;20306;-78
2021/12/24 13:58:31;;;;;;;16.93;3.00;;;9.10;99.90;;;;;;5013698;28;20244;-78
2021/12/24 14:01:00;;;;;;;12.63;2.60;;;9.10;99.90;;;;;;5013632;28;20211;-79
2021/12/24 14:03:29;;;;;;;13.03;3.03;;;9.00;99.90;;;;;;5012396;28;20267;-79
2021/12/24 14:05:58;;;;;;;9.07;3.37;;;9.00;99.90;;;;;;5013444;28;20247;-79
2021/12/24 14:08:28;;;;;;;14.17;4.57;;;9.00;99.90;;;;;;5011035;28;20282;-79
2021/12/24 14:11:09;;;;;;;7.73;2.67;;;9.00;99.90;;;;;;5013342;28;20286;-79
2021/12/24 14:13:40;;;;;;;10.10;2.73;;;9.00;99.90;;;;;;5013741;28;20239;-79
2021/12/24 14:16:18;;;;;;;8.93;2.67;;;8.90;99.90;;;;;;5015826;28;20200;-79
2021/12/24 14:18:50;;;;;;;17.40;3.80;;;;;;;;;;5018388;28;20238;-78
2021/12/24 14:21:46;;;;;;;10.67;2.57;;;;;;;;;;5020341;28;20239;-78
2021/12/24 14:24:19;;;;;;;11.87;3.10;;;9.00;99.90;;;;;;5014350;28;20227;-78
2021/12/24 14:26:51;;;;;;;13.27;3.53;;;9.00;99.90;;;;;;5010616;28;20296;-78
2021/12/24 14:29:46;;;;;;;11.27;3.00;;;9.00;99.90;;;;;;5009419;28;20291;-78
2021/12/24 14:32:14;;;;;;;9.50;3.23;;;9.00;99.90;;;;;;5006133;28;20244;-78
2021/12/24 14:34:48;;;;;;;10.27;2.73;;;9.00;99.90;;;;;;5009289;28;20380;-79
2021/12/24 14:37:22;;;;;;;5.97;2.67;;;9.00;99.90;;;;;;5013326;28;20752;-80
2021/12/24 14:39:52;;;;;;;14.87;3.87;;;9.00;99.90;;;;;;5005100;28;20212;-79
2021/12/24 14:42:22;;;;;;;17.20;4.70;;;;;;;;;;5012180;28;20200;-80
2021/12/24 14:44:54;;;;;;;13.87;2.80;;;8.90;99.90;;;;;;5017760;28;20226;-79
2021/12/24 14:47:29;;;;;;;8.67;3.37;;;8.90;99.90;;;;;;5018025;28;20240;-79
2021/12/24 15:11:29;;;;;;;13.57;2.93;;;8.70;99.90;;;;;;5026244;28;20304;-78
2021/12/24 15:14:00;;;;;;;16.17;2.67;;;8.70;99.90;;;;;;5025118;28;20227;-79
2021/12/24 15:16:28;;;;;;;12.63;3.40;;;;;;;;;;5026229;28;20275;-79
2021/12/24 15:18:57;;;;;;;10.53;2.10;;;8.70;99.90;;;;;;5031077;28;20224;-79
2021/12/24 15:21:25;;;;;;;13.07;4.57;;;8.60;99.90;;;;;;5027628;28;20200;-79
2021/12/24 16:03:48;;;;;;;23.07;4.87;;;;;;;;;;5022937;28;20222;-79
2021/12/24 16:06:20;;;;;;;21.77;4.50;;;;;;;;;;5026704;28;20211;-79
2021/12/24 16:08:52;;;;;;;12.93;4.50;;;;;;;;;;5021262;28;20230;-79
2021/12/24 16:11:20;;;;;;;14.50;5.33;;;;;;;;;;5019028;28;20226;-80
2021/12/24 16:13:48;;;;;;;12.93;4.47;;;;;;;;;;5027817;28;20224;-78
2021/12/24 16:16:23;;;;;;;15.67;6.13;;;;;;;;;;5016403;28;20579;-79
2021/12/24 16:18:52;;;;;;;16.70;5.40;;;;;;;;;;5015852;28;20235;-79
2021/12/24 16:21:27;;;;;;;14.87;4.10;;;;;;;;;;5020602;28;20286;-80
2021/12/24 16:24:02;;;;;;;14.40;4.50;;;;;;;;;;5021338;28;20325;-81
2021/12/24 16:29:18;;;;;;;16.37;4.70;;;;;;;;;;5017787;28;20289;-78
2021/12/24 16:31:48;;;;;;;13.63;4.07;;;;;;;;;;5018929;28;20223;-78
2021/12/24 16:34:17;;;;;;;16.53;4.63;;;;;;;;;;5017908;28;20223;-79
2021/12/24 16:36:45;;;;;;;12.13;3.93;;;;;;;;;;5018232;28;20338;-78
2021/12/24 16:39:12;;;;;;;13.50;3.77;;;;;;;;;;5013214;28;20292;-78
2021/12/24 16:41:42;;;;;;;13.97;3.90;;;;;;;;;;5024305;28;20290;-78
2021/12/24 16:44:10;;;;;;;15.83;4.17;;;;;;;;;;5017957;28;20215;-78
2021/12/24 16:46:40;;;;;;;13.37;4.77;;;;;;;;;;5013607;28;20215;-78
2021/12/24 16:49:15;;;;;;;12.13;4.77;;;;;;;;;;5021178;28;20318;-79
2021/12/24 16:51:46;;;;;;;11.40;4.40;;;;;;;;;;5023242;28;20214;-79
2021/12/24 16:57:06;;;;;;;8.30;3.63;;;;;;;;;;5012806;28;20547;-79
2021/12/24 16:59:40;;;;;;;14.33;3.60;;;;;;;;;;5014901;28;20267;-78